Time;durP1;ratioP1;P1;durP2;ratioP2;P2;SDS_P1;SDS_P2;PMS_P1;PMS_P2;Temp;Humidity;BMP_temperature;BMP_pressure;BME280_temperature;BME280_humidity;BME280_pressure;Samples;Min_cycle;Max_cycle;Signal;HPM_P1;HPM_P2
2022/09/26 00:01:16;;;;;;;36.17;13.10;;;12.20;99.90;;;;;;6180508;28;20051;-82
2022/09/26 00:04:22;;;;;;;39.92;12.60;;;12.10;99.90;;;;;;6178141;28;20050;-81
2022/09/26 00:07:24;;;;;;;43.53;13.57;;;12.10;99.90;;;;;;6178637;28;20058;-82
2022/09/26 00:10:27;;;;;;;36.00;11.98;;;12.10;99.90;;;;;;6179550;28;20043;-81
2022/09/26 00:13:30;;;;;;;39.90;14.85;;;12.10;99.90;;;;;;6179980;28;20050;-82
2022/09/26 00:16:32;;;;;;;32.83;12.65;;;12.10;99.90;;;;;;6178493;28;20413;-82
2022/09/26 00:19:34;;;;;;;38.45;12.32;;;12.10;99.90;;;;;;6178845;28;20046;-82
2022/09/26 00:22:35;;;;;;;34.63;12.45;;;12.10;99.90;;;;;;6179916;28;20042;-82
2022/09/26 00:25:45;;;;;;;36.00;13.18;;;12.10;99.90;;;;;;6180512;28;20492;-80
2022/09/26 00:28:47;;;;;;;24.70;11.25;;;12.10;99.90;;;;;;6181402;28;20051;-80
2022/09/26 00:31:48;;;;;;;30.33;11.75;;;12.00;99.90;;;;;;6181355;28;20050;-81
2022/09/26 00:34:50;;;;;;;39.55;13.40;;;12.00;99.90;;;;;;6181304;28;20046;-82
2022/09/26 00:37:52;;;;;;;29.60;12.43;;;12.00;99.90;;;;;;6180391;28;20093;-80
2022/09/26 00:40:55;;;;;;;30.83;12.32;;;12.00;99.90;;;;;;6180916;28;20058;-81
2022/09/26 00:43:57;;;;;;;36.55;11.70;;;12.00;99.90;;;;;;6157801;28;20049;-82
2022/09/26 00:46:59;;;;;;;30.55;13.18;;;12.00;99.90;;;;;;6155398;28;20043;-82
2022/09/26 00:50:04;;;;;;;26.40;12.23;;;12.00;99.90;;;;;;6155278;28;20055;-80
2022/09/26 00:53:09;;;;;;;28.60;11.65;;;12.00;99.90;;;;;;6156331;28;20536;-81
2022/09/26 00:56:16;;;;;;;30.83;11.60;;;12.00;99.90;;;;;;6155252;28;20509;-82
2022/09/26 00:59:22;;;;;;;33.08;12.82;;;12.00;99.90;;;;;;6157599;28;20047;-80
2022/09/26 01:02:25;;;;;;;26.55;11.25;;;12.00;99.90;;;;;;6155978;28;20047;-80
2022/09/26 01:05:28;;;;;;;30.40;12.05;;;12.00;99.90;;;;;;6155120;28;20047;-80
2022/09/26 01:08:35;;;;;;;35.47;14.02;;;12.00;99.90;;;;;;6155431;28;20051;-82
2022/09/26 01:11:41;;;;;;;32.35;11.82;;;12.00;99.90;;;;;;6167819;28;20050;-80
2022/09/26 01:14:44;;;;;;;28.63;11.05;;;12.00;99.90;;;;;;6204573;28;20046;-80
2022/09/26 01:17:47;;;;;;;34.17;12.60;;;12.00;99.90;;;;;;6211560;28;20393;-80
2022/09/26 01:20:56;;;;;;;32.00;11.57;;;11.90;99.90;;;;;;6213243;28;20055;-81
2022/09/26 01:24:32;;;;;;;31.35;11.27;;;11.90;99.90;;;;;;6212884;28;20046;-80
2022/09/26 01:27:52;;;;;;;40.72;13.35;;;11.90;99.90;;;;;;6211640;28;20046;-80
2022/09/26 01:31:05;;;;;;;37.53;13.23;;;11.90;99.90;;;;;;6211827;28;20072;-81
2022/09/26 01:34:14;;;;;;;33.75;12.60;;;12.00;99.90;;;;;;6211696;28;20049;-79
2022/09/26 01:37:28;;;;;;;32.22;11.63;;;12.00;99.90;;;;;;6212823;28;20054;-84
2022/09/26 01:40:36;;;;;;;34.30;12.10;;;12.00;99.90;;;;;;6211589;28;20427;-82
2022/09/26 01:43:45;;;;;;;36.63;12.98;;;12.00;99.90;;;;;;6209550;28;20056;-82
2022/09/26 01:46:52;;;;;;;38.40;13.20;;;12.00;99.90;;;;;;6206959;28;20500;-81
2022/09/26 01:50:00;;;;;;;43.33;12.93;;;12.10;99.90;;;;;;6206745;28;20393;-81
2022/09/26 01:53:03;;;;;;;;;;;12.10;99.90;;;;;;6208283;28;20061;-81
2022/09/26 01:56:08;;;;;;;36.10;13.10;;;12.10;99.90;;;;;;6206871;28;20027;-81
2022/09/26 01:59:16;;;;;;;44.33;13.65;;;12.00;99.90;;;;;;6211985;28;20042;-81
2022/09/26 02:02:24;;;;;;;36.63;14.10;;;12.00;99.90;;;;;;6211255;28;20046;-80
2022/09/26 02:05:32;;;;;;;44.72;15.95;;;12.10;99.90;;;;;;6209989;28;20043;-80
2022/09/26 02:08:36;;;;;;;;;;;12.00;99.90;;;;;;6206593;28;20046;-80
2022/09/26 02:11:41;;;;;;;47.08;14.02;;;12.00;99.90;;;;;;6210337;28;20377;-83
2022/09/26 02:14:44;;;;;;;35.15;12.45;;;12.00;99.90;;;;;;6209651;28;20038;-81
2022/09/26 02:17:51;;;;;;;47.55;15.05;;;12.00;99.90;;;;;;6205948;28;20050;-80
2022/09/26 02:21:01;;;;;;;39.45;13.35;;;12.00;99.90;;;;;;6206809;28;20437;-80
2022/09/26 02:24:02;;;;;;;41.30;14.07;;;12.00;99.90;;;;;;6204361;28;20045;-80
2022/09/26 02:27:05;;;;;;;43.17;13.63;;;12.10;99.90;;;;;;6205719;28;20413;-80
2022/09/26 02:30:08;;;;;;;48.08;15.07;;;12.00;99.90;;;;;;6205100;28;20085;-80
2022/09/26 02:33:12;;;;;;;41.70;14.02;;;12.00;99.90;;;;;;6205864;28;20050;-80
2022/09/26 02:36:14;;;;;;;43.15;15.25;;;12.00;99.90;;;;;;6205522;28;20415;-80
2022/09/26 02:39:15;;;;;;;43.47;14.93;;;12.10;99.90;;;;;;6205711;28;20053;-80
2022/09/26 02:42:23;;;;;;;49.22;15.00;;;12.10;99.90;;;;;;6205273;28;20049;-80
2022/09/26 02:45:29;;;;;;;48.78;15.13;;;12.10;99.90;;;;;;6205653;28;20046;-80
2022/09/26 02:48:46;;;;;;;56.85;15.48;;;12.20;99.90;;;;;;6205473;28;20050;-80
2022/09/26 02:52:06;;;;;;;46.42;14.35;;;12.20;99.90;;;;;;6205682;28;20054;-80
2022/09/26 02:55:20;;;;;;;46.20;14.10;;;12.20;99.90;;;;;;6205303;28;20777;-80
2022/09/26 02:58:35;;;;;;;49.28;14.65;;;12.30;99.90;;;;;;6206052;28;20066;-80
2022/09/26 03:01:41;;;;;;;47.72;14.77;;;12.30;99.90;;;;;;6206088;28;20531;-80
2022/09/26 03:04:49;;;;;;;52.88;15.05;;;12.20;99.90;;;;;;6205796;28;20043;-81
2022/09/26 03:07:56;;;;;;;49.47;13.95;;;12.20;99.90;;;;;;6206060;28;20053;-80
2022/09/26 03:11:03;;;;;;;37.87;14.47;;;12.20;99.90;;;;;;6209575;28;20073;-80
2022/09/26 03:14:06;;;;;;;50.47;14.43;;;12.20;99.90;;;;;;6203748;28;20332;-81
2022/09/26 03:17:09;;;;;;;54.05;14.13;;;12.20;99.90;;;;;;6203959;28;20052;-81
2022/09/26 03:20:15;;;;;;;37.00;13.00;;;12.20;99.90;;;;;;6203206;28;20135;-80
2022/09/26 03:23:17;;;;;;;40.30;13.85;;;12.20;99.90;;;;;;6204408;28;20050;-80
2022/09/26 03:26:23;;;;;;;33.00;12.95;;;12.20;99.90;;;;;;6203575;28;20057;-80
2022/09/26 03:29:25;;;;;;;41.40;12.68;;;12.10;99.90;;;;;;6203624;28;20046;-80
2022/09/26 03:32:27;;;;;;;31.05;11.50;;;12.10;99.90;;;;;;6206401;28;20522;-79
2022/09/26 03:35:30;;;;;;;34.10;11.63;;;12.10;99.90;;;;;;6205222;28;20046;-80
2022/09/26 03:38:32;;;;;;;38.63;11.98;;;12.00;99.90;;;;;;6204128;28;20038;-80
2022/09/26 03:41:34;;;;;;;30.60;11.50;;;11.90;99.90;;;;;;6203569;28;20058;-80
2022/09/26 03:44:36;;;;;;;33.95;11.25;;;11.80;99.90;;;;;;6202163;28;20046;-80
2022/09/26 03:47:38;;;;;;;30.95;10.93;;;11.70;99.90;;;;;;6202368;28;20050;-80
2022/09/26 03:50:41;;;;;;;28.98;10.55;;;11.70;99.90;;;;;;6202653;28;20046;-80
2022/09/26 03:53:45;;;;;;;33.33;10.05;;;11.60;99.90;;;;;;6203354;28;20051;-80
2022/09/26 03:56:47;;;;;;;25.00;10.70;;;11.60;99.90;;;;;;6204317;28;20177;-80
2022/09/26 03:59:49;;;;;;;24.98;8.85;;;11.50;99.90;;;;;;6202742;28;20058;-80
2022/09/26 04:02:51;;;;;;;32.45;10.07;;;11.50;99.90;;;;;;6202749;28;20054;-80
2022/09/26 04:05:54;;;;;;;30.25;9.82;;;11.50;99.90;;;;;;6201543;28;20046;-80
2022/09/26 04:08:56;;;;;;;27.50;9.90;;;11.40;99.90;;;;;;6202150;28;20526;-80
2022/09/26 04:11:58;;;;;;;28.60;9.68;;;11.40;99.90;;;;;;6201543;28;20051;-80
2022/09/26 04:15:01;;;;;;;21.95;8.73;;;11.40;99.90;;;;;;6202122;28;20042;-80
2022/09/26 04:18:03;;;;;;;30.23;10.35;;;11.30;99.90;;;;;;6202222;28;20049;-80
2022/09/26 04:21:08;;;;;;;22.35;9.23;;;11.30;99.90;;;;;;6202640;28;20054;-80
2022/09/26 04:24:14;;;;;;;33.88;9.70;;;11.20;99.90;;;;;;6202403;28;20053;-80
2022/09/26 04:27:15;;;;;;;22.70;8.88;;;11.20;99.90;;;;;;6201366;28;20511;-80
2022/09/26 04:30:17;;;;;;;35.83;12.73;;;11.10;99.90;;;;;;6202107;28;20096;-81
2022/09/26 04:33:20;;;;;;;40.15;13.35;;;11.10;99.90;;;;;;6202759;28;20054;-81
2022/09/26 04:36:23;;;;;;;21.83;9.60;;;11.10;99.90;;;;;;6202754;28;20110;-81
2022/09/26 04:39:25;;;;;;;25.45;10.65;;;11.00;99.90;;;;;;6201614;28;20508;-81
2022/09/26 04:42:26;;;;;;;27.15;8.68;;;11.00;99.90;;;;;;6202086;28;20108;-80
2022/09/26 04:45:28;;;;;;;28.23;8.95;;;10.90;99.90;;;;;;6202826;28;20562;-80
2022/09/26 04:48:30;;;;;;;24.70;9.18;;;10.80;99.90;;;;;;6204661;28;20050;-80
2022/09/26 04:51:33;;;;;;;22.92;8.38;;;10.80;99.90;;;;;;6207152;28;20057;-79
2022/09/26 04:54:36;;;;;;;29.80;9.13;;;10.70;99.90;;;;;;6207159;28;20049;-80
2022/09/26 04:57:37;;;;;;;25.55;9.10;;;10.70;99.90;;;;;;6207302;28;20484;-80
2022/09/26 05:00:44;;;;;;;22.73;8.25;;;10.70;99.90;;;;;;6206890;28;20047;-80
2022/09/26 05:03:46;;;;;;;23.63;8.48;;;10.60;99.90;;;;;;6206990;28;20451;-80
2022/09/26 05:06:49;;;;;;;21.17;9.10;;;10.60;99.90;;;;;;6207386;28;20049;-80
2022/09/26 05:09:51;;;;;;;23.02;9.20;;;10.60;99.90;;;;;;6207384;28;20116;-80
2022/09/26 05:12:53;;;;;;;25.98;8.25;;;10.60;99.90;;;;;;6214528;28;20058;-82
2022/09/26 05:15:58;;;;;;;18.50;7.45;;;10.60;99.90;;;;;;6215934;28;20492;-80
2022/09/26 05:19:00;;;;;;;17.27;6.25;;;10.60;99.90;;;;;;6214389;28;20046;-82
2022/09/26 05:22:04;;;;;;;19.80;6.60;;;10.50;99.90;;;;;;6214986;28;20047;-80
2022/09/26 05:28:26;;;;;;;20.30;7.07;;;10.40;99.90;;;;;;6216042;28;20042;-80
2022/09/26 05:31:29;;;;;;;21.67;7.05;;;10.50;99.90;;;;;;6215131;28;20050;-81
2022/09/26 05:34:30;;;;;;;19.27;6.95;;;10.50;99.90;;;;;;6215178;28;20467;-81
2022/09/26 05:37:33;;;;;;;24.17;6.85;;;10.50;99.90;;;;;;6212287;28;20051;-80
2022/09/26 05:43:55;;;;;;;17.90;6.88;;;10.50;99.90;;;;;;6211219;28;20046;-80
2022/09/26 05:46:57;;;;;;;24.63;8.18;;;10.50;99.90;;;;;;6207743;28;20042;-79
2022/09/26 05:49:59;;;;;;;25.65;8.18;;;10.50;99.90;;;;;;6207099;28;20431;-80
2022/09/26 05:53:03;;;;;;;19.67;7.13;;;10.60;99.90;;;;;;6208135;28;20050;-81
2022/09/26 05:56:05;;;;;;;17.75;6.88;;;10.60;99.90;;;;;;6206722;28;20039;-81
2022/09/26 05:59:07;;;;;;;23.23;7.30;;;10.60;99.90;;;;;;6206925;28;20046;-81
2022/09/26 06:02:10;;;;;;;23.63;8.85;;;10.70;99.90;;;;;;6207126;28;20496;-81
2022/09/26 06:05:12;;;;;;;20.27;7.68;;;10.70;99.90;;;;;;6206969;28;20049;-81
2022/09/26 06:08:16;;;;;;;17.80;7.55;;;10.80;99.90;;;;;;6209155;28;20049;-81
2022/09/26 06:11:23;;;;;;;18.15;7.97;;;10.90;99.90;;;;;;6209268;28;20050;-81
2022/09/26 06:14:25;;;;;;;18.85;9.00;;;11.00;99.90;;;;;;6210272;28;20177;-81
2022/09/26 06:17:27;;;;;;;20.40;9.73;;;11.10;99.90;;;;;;6213938;28;20049;-81
2022/09/26 06:20:28;;;;;;;22.77;7.75;;;11.20;99.90;;;;;;6209068;28;20061;-81
2022/09/26 06:23:33;;;;;;;20.63;8.98;;;11.30;99.90;;;;;;6205581;28;20046;-81
2022/09/26 06:26:34;;;;;;;23.63;9.63;;;11.40;99.90;;;;;;6206237;28;20405;-81
2022/09/26 06:29:36;;;;;;;23.75;9.02;;;11.60;99.90;;;;;;6206806;28;20424;-81
2022/09/26 06:32:38;;;;;;;26.10;10.02;;;11.70;99.90;;;;;;6205946;28;20117;-81
2022/09/26 06:35:40;;;;;;;19.63;7.88;;;11.80;99.90;;;;;;6204795;28;20047;-81
2022/09/26 06:38:43;;;;;;;15.05;7.15;;;11.80;99.90;;;;;;6204757;28;20057;-81
2022/09/26 06:41:45;;;;;;;17.35;7.85;;;11.90;99.90;;;;;;6204029;28;20058;-81
2022/09/26 06:44:46;;;;;;;17.83;6.70;;;12.00;99.90;;;;;;6205336;28;20047;-81
2022/09/26 06:47:48;;;;;;;15.00;6.95;;;12.00;99.90;;;;;;6204284;28;20046;-81
2022/09/26 06:50:51;;;;;;;13.77;6.85;;;12.10;99.90;;;;;;6206015;28;20050;-81
2022/09/26 06:53:54;;;;;;;17.38;6.45;;;12.20;99.90;;;;;;6205234;28;20061;-82
2022/09/26 06:56:56;;;;;;;13.75;7.18;;;12.40;99.90;;;;;;6205342;28;20080;-81
2022/09/26 06:59:57;;;;;;;14.93;7.43;;;12.60;99.90;;;;;;6204169;28;20042;-81
2022/09/26 07:03:00;;;;;;;16.48;6.55;;;12.80;99.90;;;;;;6203735;28;20524;-81
2022/09/26 07:06:02;;;;;;;12.45;5.68;;;13.20;99.90;;;;;;6204929;28;20046;-81
2022/09/26 07:09:05;;;;;;;11.50;5.70;;;13.60;99.90;;;;;;6203875;28;20397;-81
2022/09/26 07:12:07;;;;;;;7.65;4.97;;;13.90;99.90;;;;;;6204309;28;20051;-81
2022/09/26 07:15:10;;;;;;;10.25;5.03;;;14.40;99.90;;;;;;6204015;28;20050;-80
2022/09/26 07:18:12;;;;;;;5.68;3.47;;;15.20;99.90;;;;;;6202371;28;20042;-80
2022/09/26 07:21:14;;;;;;;8.05;4.03;;;16.50;99.90;;;;;;6172211;28;20051;-80
2022/09/26 07:24:17;;;;;;;4.63;3.25;;;17.80;99.90;;;;;;6138889;28;20393;-80
2022/09/26 07:27:18;;;;;;;7.20;1.90;;;19.20;99.90;;;;;;6177914;28;20047;-81
2022/09/26 07:30:20;;;;;;;4.07;1.70;;;20.40;99.90;;;;;;6177501;28;20046;-84
2022/09/26 07:33:22;;;;;;;7.15;1.80;;;21.30;99.90;;;;;;6177177;28;20068;-83
2022/09/26 07:36:23;;;;;;;5.00;1.35;;;22.20;99.10;;;;;;6179244;28;20050;-81
2022/09/26 07:39:26;;;;;;;2.63;1.50;;;22.70;94.20;;;;;;6170485;28;20050;-81
2022/09/26 07:42:28;;;;;;;2.97;1.35;;;23.10;92.00;;;;;;6176967;28;20047;-81
2022/09/26 07:52:09;;;;;;;2.95;1.65;;;22.30;91.30;;;;;;6179820;28;20047;-81
2022/09/26 07:55:14;;;;;;;6.63;0.93;;;21.50;91.10;;;;;;6181744;28;20047;-82
2022/09/26 07:58:15;;;;;;;1.27;0.93;;;20.80;91.70;;;;;;6179152;28;20138;-81
2022/09/26 08:01:17;;;;;;;5.10;1.15;;;20.50;92.20;;;;;;6178516;28;20532;-81
2022/09/26 08:04:19;;;;;;;3.00;1.45;;;20.20;92.40;;;;;;6179634;28;20065;-82
2022/09/26 08:07:21;;;;;;;6.53;1.80;;;20.00;92.90;;;;;;6179024;28;20055;-82
2022/09/26 08:10:24;;;;;;;6.22;1.35;;;19.90;92.80;;;;;;6178635;28;20039;-82
2022/09/26 08:13:27;;;;;;;2.28;1.23;;;19.70;93.20;;;;;;6179996;28;20057;-81
2022/09/26 08:16:29;;;;;;;3.55;1.38;;;19.70;93.70;;;;;;6178354;28;20043;-82
2022/09/26 08:19:31;;;;;;;3.08;1.45;;;19.70;93.60;;;;;;6178583;28;20112;-82
2022/09/26 08:22:33;;;;;;;2.10;1.20;;;19.90;93.50;;;;;;6168113;28;20234;-82
2022/09/26 08:25:36;;;;;;;4.13;1.60;;;20.10;93.20;;;;;;6182733;28;20053;-81
2022/09/26 08:28:38;;;;;;;2.22;1.38;;;20.50;93.20;;;;;;6178232;28;20508;-82
2022/09/26 08:31:40;;;;;;;2.15;1.17;;;21.00;91.80;;;;;;6178700;28;20055;-81
2022/09/26 08:34:42;;;;;;;2.03;1.30;;;21.30;90.30;;;;;;6177979;28;20046;-82
2022/09/26 08:37:43;;;;;;;3.22;1.25;;;21.50;90.10;;;;;;6178725;28;20042;-83
2022/09/26 08:40:54;;;;;;;2.63;1.63;;;21.50;89.80;;;;;;6179372;28;20054;-82
2022/09/26 08:44:10;;;;;;;5.82;1.50;;;21.80;87.90;;;;;;6178785;28;20051;-83
2022/09/26 08:47:34;;;;;;;4.45;1.50;;;22.50;86.50;;;;;;6179156;28;20058;-83
2022/09/26 08:50:45;;;;;;;3.55;1.65;;;23.40;85.50;;;;;;6179461;28;20501;-82
2022/09/26 08:53:52;;;;;;;2.90;1.30;;;23.90;82.60;;;;;;6179507;28;20058;-86
2022/09/26 08:57:00;;;;;;;5.20;1.40;;;24.30;80.00;;;;;;6177815;28;20139;-83
2022/09/26 09:00:17;;;;;;;2.28;1.52;;;24.10;78.30;;;;;;6174459;28;20575;-82
2022/09/26 09:03:27;;;;;;;2.63;1.20;;;24.00;77.50;;;;;;6172853;28;20845;-82
2022/09/26 09:06:29;;;;;;;3.50;1.15;;;24.10;75.60;;;;;;6172864;28;20046;-82
2022/09/26 09:09:31;;;;;;;6.57;1.50;;;23.60;75.90;;;;;;6172425;28;20062;-82
2022/09/26 09:12:43;;;;;;;2.25;1.15;;;23.20;78.00;;;;;;6174172;28;20054;-82
2022/09/26 09:16:07;;;;;;;4.57;1.23;;;23.10;76.00;;;;;;6174367;28;20050;-81
2022/09/26 09:19:16;;;;;;;3.13;1.40;;;23.50;75.10;;;;;;6178358;28;20492;-82
2022/09/26 09:22:48;;;;;;;2.78;1.08;;;23.70;73.50;;;;;;6178860;28;20058;-82
2022/09/26 09:25:59;;;;;;;2.42;1.25;;;23.10;75.20;;;;;;6180701;28;20055;-82
2022/09/26 09:29:17;;;;;;;4.30;1.38;;;22.50;76.80;;;;;;6174877;28;20061;-82
2022/09/26 09:32:22;;;;;;;1.95;1.23;;;22.10;78.80;;;;;;6174427;28;20054;-81
2022/09/26 09:35:32;;;;;;;3.63;1.10;;;22.20;78.20;;;;;;6179178;28;20046;-81
2022/09/26 09:38:38;;;;;;;1.50;0.88;;;22.40;77.80;;;;;;6178310;28;20513;-82
2022/09/26 09:41:45;;;;;;;3.70;0.77;;;22.80;74.80;;;;;;6179191;28;20055;-81
2022/09/26 09:44:53;;;;;;;3.30;0.98;;;22.70;73.30;;;;;;6179298;28;20526;-81
2022/09/26 09:47:57;;;;;;;3.22;0.80;;;22.70;73.70;;;;;;6179441;28;20058;-82
2022/09/26 09:51:12;;;;;;;4.47;1.00;;;23.10;72.90;;;;;;6180076;28;20055;-82
2022/09/26 09:54:37;;;;;;;2.92;1.05;;;23.20;71.60;;;;;;6179092;28;20129;-81
2022/09/26 09:57:55;;;;;;;3.25;0.95;;;22.80;73.30;;;;;;6178946;28;20050;-81
2022/09/26 10:01:08;;;;;;;2.28;0.80;;;22.30;73.50;;;;;;6179375;28;20636;-81
2022/09/26 10:04:22;;;;;;;1.40;0.70;;;22.30;74.50;;;;;;6179726;28;20058;-81
2022/09/26 10:07:23;;;;;;;4.10;1.30;;;22.00;72.30;;;;;;6178806;28;20046;-81
2022/09/26 10:10:32;;;;;;;2.45;1.00;;;21.50;73.80;;;;;;6179378;28;20047;-82
2022/09/26 10:13:35;;;;;;;3.90;1.20;;;21.20;76.40;;;;;;6179866;28;20077;-81
2022/09/26 10:17:19;;;;;;;2.03;0.63;;;20.80;79.60;;;;;;6179026;28;20038;-82
2022/09/26 10:20:39;;;;;;;1.40;0.80;;;20.30;83.40;;;;;;6183077;28;20050;-81
2022/09/26 10:23:45;;;;;;;3.70;1.30;;;19.60;84.50;;;;;;6179837;28;20058;-82
2022/09/26 10:26:49;;;;;;;4.28;1.23;;;19.20;88.40;;;;;;6176713;28;20050;-82
2022/09/26 10:29:57;;;;;;;5.55;1.15;;;18.80;90.80;;;;;;6179877;28;20094;-83
2022/09/26 10:33:02;;;;;;;4.60;1.58;;;18.80;92.30;;;;;;6179535;28;20098;-82
2022/09/26 10:36:19;;;;;;;4.70;1.35;;;19.40;93.80;;;;;;6178830;28;20042;-82
2022/09/26 10:42:45;;;;;;;6.70;1.15;;;20.00;87.40;;;;;;6178815;28;20508;-82
2022/09/26 10:45:48;;;;;;;7.43;1.13;;;19.50;90.00;;;;;;6179078;28;20137;-81
2022/09/26 10:48:52;;;;;;;2.13;1.20;;;19.10;90.10;;;;;;6179766;28;20047;-81
2022/09/26 10:52:02;;;;;;;1.30;0.85;;;18.90;90.70;;;;;;6179962;28;20135;-82
2022/09/26 10:55:10;;;;;;;5.00;1.20;;;19.10;90.50;;;;;;6179864;28;20046;-82
2022/09/26 10:58:17;;;;;;;4.95;1.13;;;19.20;90.80;;;;;;6171441;28;20521;-82
2022/09/26 11:01:25;;;;;;;1.95;1.05;;;19.20;89.80;;;;;;6181377;28;20050;-82
2022/09/26 11:07:51;;;;;;;2.00;1.10;;;18.50;91.60;;;;;;6178373;28;20043;-82
2022/09/26 11:10:54;;;;;;;3.22;0.88;;;18.50;92.50;;;;;;6179160;28;20043;-81
2022/09/26 11:14:04;;;;;;;3.20;1.30;;;18.40;92.90;;;;;;6181785;28;20050;-81
2022/09/26 11:17:07;;;;;;;4.53;1.40;;;18.20;93.70;;;;;;6179466;28;20051;-81
2022/09/26 11:20:13;;;;;;;9.90;1.80;;;18.00;94.10;;;;;;6176307;28;20058;-80
2022/09/26 11:23:31;;;;;;;5.63;1.45;;;17.60;95.70;;;;;;6179330;28;20050;-81
2022/09/26 11:26:42;;;;;;;3.63;1.60;;;17.30;97.30;;;;;;6179460;28;20408;-83
2022/09/26 11:29:52;;;;;;;4.35;1.63;;;17.00;99.30;;;;;;6179715;28;20137;-82
2022/09/26 11:32:56;;;;;;;4.28;1.67;;;17.00;99.90;;;;;;6179980;28;20065;-82
2022/09/26 11:36:21;;;;;;;2.85;1.45;;;17.00;99.90;;;;;;6179372;28;20047;-81
2022/09/26 11:39:40;;;;;;;5.45;1.33;;;16.90;99.90;;;;;;6178854;28;20548;-82
2022/09/26 11:42:56;;;;;;;4.35;0.95;;;16.70;99.90;;;;;;6157310;28;20058;-81
2022/09/26 11:46:13;;;;;;;2.35;0.88;;;16.20;99.90;;;;;;6155491;28;20404;-81
2022/09/26 11:49:32;;;;;;;5.10;1.38;;;15.60;99.90;;;;;;6155555;28;20055;-82
2022/09/26 11:52:51;;;;;;;15.30;7.13;;;15.00;99.90;;;;;;6155790;28;20047;-83
2022/09/26 11:56:09;;;;;;;5.85;3.03;;;14.80;99.90;;;;;;6169773;28;20046;-81
2022/09/26 11:59:27;;;;;;;10.88;7.38;;;14.80;99.90;;;;;;6154747;28;20074;-82
2022/09/26 12:02:41;;;;;;;5.40;2.20;;;15.00;99.90;;;;;;6154515;28;20047;-80
2022/09/26 12:05:53;;;;;;;2.25;1.38;;;15.20;99.90;;;;;;6155160;28;20051;-82
2022/09/26 12:09:31;;;;;;;5.60;2.55;;;15.40;99.90;;;;;;6156825;28;20055;-82
2022/09/26 12:12:41;;;;;;;1.80;1.08;;;15.50;99.90;;;;;;6155194;28;20070;-82
2022/09/26 12:15:54;;;;;;;3.33;1.08;;;15.60;99.90;;;;;;6155793;28;20537;-81
2022/09/26 12:19:04;;;;;;;9.98;5.10;;;15.40;99.90;;;;;;6155627;28;20513;-81
2022/09/26 12:22:28;;;;;;;7.43;3.53;;;15.30;99.90;;;;;;6155868;28;20110;-82
2022/09/26 12:25:41;;;;;;;7.47;5.05;;;15.30;99.90;;;;;;6171600;28;20065;-82
2022/09/26 12:29:08;;;;;;;4.95;2.28;;;15.20;99.90;;;;;;6181178;28;20480;-82
2022/09/26 12:32:24;;;;;;;6.03;1.77;;;15.20;99.90;;;;;;6178557;28;20046;-82
2022/09/26 12:35:41;;;;;;;7.93;3.72;;;15.40;99.90;;;;;;6185087;28;20051;-82
2022/09/26 12:39:05;;;;;;;9.10;2.53;;;15.80;99.90;;;;;;6177952;28;20047;-82
2022/09/26 12:42:21;;;;;;;7.35;2.40;;;16.10;99.90;;;;;;6176091;28;20047;-82
2022/09/26 12:45:56;;;;;;;2.25;1.55;;;16.30;99.90;;;;;;6155166;28;20138;-82
2022/09/26 12:49:13;;;;;;;7.15;4.30;;;16.60;99.90;;;;;;6153585;28;20043;-82
2022/09/26 12:52:27;;;;;;;3.45;2.70;;;16.70;99.90;;;;;;6153379;28;20054;-81
2022/09/26 12:55:34;;;;;;;3.45;1.77;;;16.90;99.90;;;;;;6170816;28;20051;-81
2022/09/26 12:58:50;;;;;;;2.08;1.02;;;17.20;99.90;;;;;;6176372;28;20129;-81
2022/09/26 13:02:17;;;;;;;6.43;1.35;;;17.40;99.90;;;;;;6175609;28;20051;-81
2022/09/26 13:05:37;;;;;;;3.35;1.63;;;17.50;99.90;;;;;;6176044;28;20412;-81
2022/09/26 13:08:57;;;;;;;2.40;1.15;;;17.60;99.90;;;;;;6179812;28;20053;-83
2022/09/26 13:12:15;;;;;;;7.07;3.47;;;17.60;99.90;;;;;;6183281;28;20047;-82
2022/09/26 13:15:25;;;;;;;4.15;1.17;;;17.60;99.90;;;;;;6182146;28;20420;-82
2022/09/26 13:18:38;;;;;;;5.88;4.80;;;17.60;99.90;;;;;;6179522;28;20447;-83
2022/09/26 13:21:44;;;;;;;2.75;0.68;;;17.70;99.90;;;;;;6180484;28;20059;-83
2022/09/26 13:24:51;;;;;;;1.70;0.70;;;17.70;99.50;;;;;;6167203;28;20113;-83
2022/09/26 13:28:03;;;;;;;3.45;0.68;;;17.80;99.40;;;;;;6181015;28;20050;-82
2022/09/26 13:31:15;;;;;;;5.18;0.70;;;18.00;99.60;;;;;;6181726;28;20046;-82
2022/09/26 13:34:25;;;;;;;2.90;0.90;;;18.00;98.10;;;;;;6181242;28;20065;-82
2022/09/26 13:37:35;;;;;;;1.50;0.47;;;17.80;97.20;;;;;;6181987;28;20047;-81
2022/09/26 13:40:43;;;;;;;3.25;0.32;;;17.80;96.90;;;;;;6182344;28;20047;-81
2022/09/26 13:43:52;;;;;;;;;;;17.70;97.30;;;;;;6182160;28;20521;-82
2022/09/26 13:47:08;;;;;;;2.28;0.47;;;18.00;96.30;;;;;;6162777;28;19960;-83
2022/09/26 13:50:22;;;;;;;3.60;0.40;;;18.10;96.40;;;;;;6157574;28;20054;-85
2022/09/26 13:53:29;;;;;;;2.60;0.40;;;18.40;96.30;;;;;;6157684;28;20498;-84
2022/09/26 13:56:48;;;;;;;6.03;0.52;;;18.60;95.40;;;;;;6178052;28;20097;-83
2022/09/26 13:59:53;;;;;;;2.00;0.70;;;18.80;95.60;;;;;;6178928;28;20456;-85
2022/09/26 14:03:28;;;;;;;1.55;0.50;;;18.90;93.50;;;;;;6182287;28;20046;-83
2022/09/26 14:06:31;;;;;;;1.52;0.65;;;18.90;93.10;;;;;;6181552;28;20093;-82
2022/09/26 14:09:55;;;;;;;5.78;0.50;;;18.90;92.40;;;;;;6182285;28;20504;-83
2022/09/26 14:13:17;;;;;;;1.77;1.10;;;18.80;91.90;;;;;;6181732;28;20640;-82
2022/09/26 14:16:34;;;;;;;3.55;0.60;;;18.80;91.80;;;;;;6181223;28;20050;-82
2022/09/26 14:19:38;;;;;;;4.00;0.50;;;19.00;91.60;;;;;;6181249;28;20054;-83
2022/09/26 14:22:50;;;;;;;3.63;1.55;;;19.00;91.30;;;;;;6181331;28;20050;-83
2022/09/26 14:25:55;;;;;;;3.83;1.23;;;18.90;90.80;;;;;;6180746;28;20054;-82
2022/09/26 14:29:24;;;;;;;1.55;0.82;;;18.70;90.30;;;;;;6183351;28;20046;-82
2022/09/26 14:32:29;;;;;;;5.85;0.40;;;18.60;90.40;;;;;;6181650;28;20047;-82
2022/09/26 14:35:33;;;;;;;0.90;0.50;;;18.20;90.70;;;;;;6182762;28;20051;-81
2022/09/26 14:38:39;;;;;;;4.20;1.13;;;18.10;91.50;;;;;;6182732;28;20054;-82
2022/09/26 14:41:41;;;;;;;5.07;0.60;;;18.00;91.70;;;;;;6182032;28;20054;-81
2022/09/26 14:44:55;;;;;;;1.08;0.65;;;17.90;92.00;;;;;;6181636;28;20058;-81
2022/09/26 14:48:07;;;;;;;3.78;0.60;;;17.80;91.40;;;;;;6182202;28;20061;-82
2022/09/26 14:51:24;;;;;;;0.60;0.40;;;17.60;91.90;;;;;;6181917;28;20525;-81
2022/09/26 14:54:36;;;;;;;2.50;0.27;;;17.50;92.50;;;;;;6180295;28;20431;-79
2022/09/26 14:57:37;;;;;;;1.30;0.63;;;17.40;92.50;;;;;;6180095;28;20497;-81
2022/09/26 15:00:42;;;;;;;1.15;0.30;;;17.50;92.60;;;;;;6179428;28;20536;-82
2022/09/26 15:03:53;;;;;;;2.92;0.57;;;17.50;91.70;;;;;;6181280;28;20047;-82
2022/09/26 15:06:59;;;;;;;0.90;0.50;;;17.40;91.70;;;;;;6180990;28;20050;-82
2022/09/26 15:10:09;;;;;;;4.07;0.32;;;17.40;91.90;;;;;;6181244;28;20042;-82
2022/09/26 15:13:22;;;;;;;2.58;0.40;;;17.40;91.80;;;;;;6181017;28;20137;-82
2022/09/26 15:16:31;;;;;;;1.17;0.25;;;17.50;91.70;;;;;;6158501;28;20047;-82
2022/09/26 15:19:35;;;;;;;1.00;0.40;;;17.70;91.80;;;;;;6156638;28;20171;-82
2022/09/26 15:22:38;;;;;;;5.15;1.15;;;18.00;91.30;;;;;;6157089;28;20039;-81
2022/09/26 15:25:41;;;;;;;4.35;2.05;;;18.20;91.00;;;;;;6169200;28;20394;-81
2022/09/26 15:28:47;;;;;;;2.30;0.88;;;18.20;90.40;;;;;;6181516;28;20129;-82
2022/09/26 15:31:50;;;;;;;1.88;0.73;;;18.20;90.00;;;;;;6180407;28;20049;-81
2022/09/26 15:34:52;;;;;;;0.70;0.50;;;18.00;89.40;;;;;;6179466;28;20053;-83
2022/09/26 15:37:58;;;;;;;2.13;0.55;;;17.80;89.60;;;;;;6180803;28;20140;-82
2022/09/26 15:41:02;;;;;;;1.58;0.50;;;17.60;90.40;;;;;;6180415;28;20415;-82
2022/09/26 15:44:06;;;;;;;2.17;0.60;;;17.50;90.40;;;;;;6180923;28;20121;-82
2022/09/26 15:47:38;;;;;;;0.65;0.30;;;17.40;90.50;;;;;;6176258;28;20051;-82
2022/09/26 15:50:46;;;;;;;1.58;0.70;;;17.40;90.70;;;;;;6155658;28;20051;-82
2022/09/26 15:53:53;;;;;;;1.92;0.20;;;17.30;91.00;;;;;;6157647;28;20113;-83
2022/09/26 15:57:01;;;;;;;0.63;0.35;;;17.20;90.80;;;;;;6180656;28;20129;-82
2022/09/26 16:00:03;;;;;;;1.10;0.50;;;17.20;90.90;;;;;;6179705;28;20134;-82
2022/09/26 16:03:36;;;;;;;1.63;0.57;;;17.10;90.90;;;;;;6180433;28;20046;-82
2022/09/26 16:06:41;;;;;;;1.52;0.40;;;17.00;91.30;;;;;;6178876;28;20043;-82
2022/09/26 16:09:45;;;;;;;1.92;0.50;;;17.00;91.20;;;;;;6178887;28;20051;-82
2022/09/26 16:12:48;;;;;;;1.08;0.30;;;16.90;91.20;;;;;;6180433;28;20055;-81
2022/09/26 16:16:02;;;;;;;3.75;0.57;;;16.80;91.50;;;;;;6179385;28;20097;-82
2022/09/26 16:19:04;;;;;;;3.65;0.60;;;16.70;91.60;;;;;;6178985;28;20049;-82
2022/09/26 16:22:44;;;;;;;8.50;1.55;;;16.70;91.80;;;;;;6180092;28;20405;-82
2022/09/26 16:25:53;;;;;;;5.55;2.10;;;16.60;91.50;;;;;;6175249;28;20047;-84
2022/09/26 16:28:57;;;;;;;2.45;0.85;;;16.60;91.90;;;;;;6178539;28;20050;-83